Time;durP1;ratioP1;P1;durP2;ratioP2;P2;SDS_P1;SDS_P2;PMS_P1;PMS_P2;Temp;Humidity;BMP_temperature;BMP_pressure;BME280_temperature;BME280_humidity;BME280_pressure;Samples;Min_cycle;Max_cycle;Signal;HPM_P1;HPM_P2
2023/06/14 00:01:55;;;;;;;0.00;0.00;;;;;;;20.32;49.41;101611.19;5082875;28;20063;-81
2023/06/14 00:04:21;;;;;;;0.00;0.00;;;;;;;20.29;49.12;101615.88;5085767;28;20025;-80
2023/06/14 00:06:50;;;;;;;0.10;0.10;;;;;;;20.26;48.34;101616.00;5081905;28;20055;-80
2023/06/14 00:09:17;;;;;;;0.10;0.10;;;;;;;20.23;48.99;101622.41;5085449;28;20028;-80
2023/06/14 00:11:43;;;;;;;0.05;0.05;;;;;;;20.22;48.79;101615.28;5086616;28;20028;-80
2023/06/14 00:14:10;;;;;;;0.00;0.00;;;;;;;20.20;49.63;101617.19;5087439;28;20027;-81
2023/06/14 00:16:36;;;;;;;0.03;0.03;;;;;;;20.18;48.59;101617.25;5076703;28;20037;-81
2023/06/14 00:19:04;;;;;;;0.10;0.10;;;;;;;20.16;48.90;101615.56;5085687;28;20401;-81
2023/06/14 00:21:31;;;;;;;0.20;0.20;;;;;;;20.13;49.15;101608.53;5080892;28;20028;-81
2023/06/14 00:23:59;;;;;;;0.10;0.10;;;;;;;20.12;48.56;101619.38;5086738;28;20043;-81
2023/06/14 00:26:26;;;;;;;0.68;0.30;;;;;;;20.08;49.04;101615.94;5090660;28;20025;-82
2023/06/14 00:28:52;;;;;;;0.00;0.00;;;;;;;20.06;48.95;101619.66;5086144;28;20020;-83
2023/06/14 00:31:18;;;;;;;0.03;0.03;;;;;;;20.01;49.11;101617.19;5080938;28;20024;-81
2023/06/14 00:33:45;;;;;;;0.00;0.00;;;;;;;19.97;49.38;101626.34;5087658;28;20024;-81
2023/06/14 00:36:11;;;;;;;0.00;0.00;;;;;;;19.93;49.88;101625.63;5079881;28;20047;-82
2023/06/14 00:38:37;;;;;;;0.00;0.00;;;;;;;19.89;49.76;101624.03;5078816;28;20408;-82
2023/06/14 00:41:03;;;;;;;0.00;0.00;;;;;;;19.87;49.47;101620.53;5081802;28;20040;-82
2023/06/14 00:43:29;;;;;;;0.00;0.00;;;;;;;19.84;50.24;101626.06;5078851;28;20031;-82
2023/06/14 00:45:55;;;;;;;0.10;0.10;;;;;;;19.82;50.31;101623.38;5078620;28;20060;-82
2023/06/14 00:48:22;;;;;;;0.10;0.10;;;;;;;19.80;50.15;101621.72;5082407;28;20043;-82
2023/06/14 00:50:51;;;;;;;0.10;0.10;;;;;;;19.77;50.38;101620.03;5091440;28;20043;-83
2023/06/14 00:53:17;;;;;;;0.00;0.00;;;;;;;19.76;49.75;101623.66;5099432;28;20534;-80
2023/06/14 00:55:44;;;;;;;0.00;0.00;;;;;;;19.75;49.55;101626.44;5101978;28;20028;-81
2023/06/14 00:58:11;;;;;;;0.00;0.00;;;;;;;19.71;50.34;101626.59;5092302;28;20043;-81
2023/06/14 01:00:37;;;;;;;0.10;0.10;;;;;;;19.68;50.91;101629.41;5081129;28;20036;-83
2023/06/14 01:03:03;;;;;;;0.08;0.08;;;;;;;19.66;50.18;101623.22;5087542;28;20405;-83
2023/06/14 01:05:31;;;;;;;0.30;0.30;;;;;;;19.62;50.63;101624.31;5080780;28;20029;-82
2023/06/14 01:08:26;;;;;;;0.00;0.00;;;;;;;19.64;51.08;101618.84;5092335;28;20059;-83
2023/06/14 01:11:16;;;;;;;0.00;0.00;;;;;;;19.62;52.06;101623.47;5089377;28;20086;-82
2023/06/14 01:13:46;;;;;;;0.25;0.25;;;;;;;19.52;52.18;101623.00;5086199;28;20032;-83
2023/06/14 01:16:13;;;;;;;0.28;0.28;;;;;;;19.49;50.86;101620.44;5084991;28;20028;-82
2023/06/14 01:18:41;;;;;;;0.45;0.40;;;;;;;19.47;53.36;101616.97;5091466;28;20028;-82
2023/06/14 01:21:21;;;;;;;0.00;0.00;;;;;;;19.49;52.37;101618.63;5090049;28;20034;-82
2023/06/14 01:23:52;;;;;;;0.10;0.10;;;;;;;19.42;52.54;101610.94;5091708;28;20060;-82
2023/06/14 01:26:20;;;;;;;0.00;0.00;;;;;;;19.39;52.37;101611.94;5096837;28;20055;-82
2023/06/14 01:28:48;;;;;;;0.05;0.05;;;;;;;19.35;52.12;101616.56;5087494;28;20028;-81
2023/06/14 01:31:17;;;;;;;0.10;0.10;;;;;;;19.34;52.16;101617.50;5086263;28;20028;-81
2023/06/14 01:33:45;;;;;;;0.00;0.00;;;;;;;19.30;52.20;101615.91;5079872;28;20107;-81
2023/06/14 01:36:12;;;;;;;0.05;0.05;;;;;;;19.29;51.85;101614.16;5078995;28;20078;-81
2023/06/14 01:38:39;;;;;;;0.10;0.10;;;;;;;19.28;52.07;101617.78;5091209;28;20042;-81
2023/06/14 01:41:06;;;;;;;0.10;0.10;;;;;;;19.26;51.70;101616.09;5081710;28;20385;-81
2023/06/14 01:43:34;;;;;;;0.00;0.00;;;;;;;19.22;51.65;101624.28;5080649;28;20123;-81
2023/06/14 01:46:02;;;;;;;0.10;0.10;;;;;;;19.19;52.23;101621.75;5077526;28;20032;-81
2023/06/14 01:48:28;;;;;;;0.03;0.03;;;;;;;19.14;52.16;101621.09;5096995;28;20051;-81
2023/06/14 01:50:54;;;;;;;0.10;0.10;;;;;;;19.12;51.18;101616.72;5083225;28;20024;-81
2023/06/14 01:53:20;;;;;;;0.00;0.00;;;;;;;19.14;51.77;101614.81;5085516;28;20466;-80
2023/06/14 01:55:48;;;;;;;0.10;0.10;;;;;;;19.13;52.22;101618.44;5088514;28;20461;-81
2023/06/14 01:58:16;;;;;;;0.10;0.10;;;;;;;19.12;51.77;101620.25;5081886;28;20024;-81
2023/06/14 02:00:43;;;;;;;0.00;0.00;;;;;;;19.11;51.29;101621.19;5088718;28;20032;-81
2023/06/14 02:03:11;;;;;;;0.10;0.10;;;;;;;19.08;52.16;101616.84;5085122;28;20028;-81
2023/06/14 02:05:39;;;;;;;0.25;0.25;;;;;;;19.05;51.51;101611.63;5085490;28;20036;-82
2023/06/14 02:08:06;;;;;;;0.00;0.00;;;;;;;19.03;51.15;101610.78;5080830;28;20401;-81
2023/06/14 02:10:32;;;;;;;0.00;0.00;;;;;;;19.00;51.45;101612.75;5086599;28;20111;-82
2023/06/14 02:12:58;;;;;;;0.00;0.00;;;;;;;18.96;52.05;101609.31;5088672;28;20040;-82
2023/06/14 02:15:27;;;;;;;0.82;0.80;;;;;;;18.95;50.99;101607.56;5106290;28;20044;-81
2023/06/14 02:17:53;;;;;;;0.00;0.00;;;;;;;18.93;50.93;101612.16;5099038;28;20028;-82
2023/06/14 02:20:20;;;;;;;0.10;0.10;;;;;;;18.89;51.63;101610.47;5089474;28;20029;-82
2023/06/14 02:22:46;;;;;;;0.00;0.00;;;;;;;18.86;51.94;101605.25;5084656;28;20509;-83
2023/06/14 02:25:12;;;;;;;0.00;0.00;;;;;;;18.84;52.08;101612.47;5089700;28;20042;-82
2023/06/14 02:27:38;;;;;;;0.00;0.00;;;;;;;18.82;51.76;101615.25;5085233;28;20117;-83
2023/06/14 02:30:05;;;;;;;0.03;0.03;;;;;;;18.82;51.66;101614.38;5091455;28;20393;-82
2023/06/14 02:32:34;;;;;;;0.10;0.10;;;;;;;18.81;51.22;101618.00;5079905;28;20111;-82
2023/06/14 02:35:00;;;;;;;1.17;0.30;;;;;;;18.80;51.81;101616.25;5085442;28;20110;-82
2023/06/14 02:37:26;;;;;;;0.55;0.55;;;;;;;18.78;51.06;101619.00;5100255;28;20050;-82
2023/06/14 02:39:52;;;;;;;0.10;0.10;;;;;;;18.76;51.40;101621.72;5090723;28;20509;-81
2023/06/14 02:42:18;;;;;;;0.10;0.10;;;;;;;18.76;51.04;101623.56;5079923;28;20468;-80
2023/06/14 02:44:46;;;;;;;1.02;0.93;;;;;;;18.73;51.29;101623.69;5095299;28;20123;-82
2023/06/14 02:47:12;;;;;;;0.10;0.10;;;;;;;18.72;51.52;101622.81;5083935;28;20027;-82
2023/06/14 02:49:38;;;;;;;0.08;0.08;;;;;;;18.70;52.14;101635.41;5088296;28;20051;-82
2023/06/14 02:52:06;;;;;;;0.00;0.00;;;;;;;18.69;51.05;101625.63;5083878;28;20025;-79
2023/06/14 02:54:32;;;;;;;0.00;0.00;;;;;;;18.65;50.73;101624.00;5090789;28;20028;-82
2023/06/14 02:56:58;;;;;;;0.10;0.10;;;;;;;18.67;50.84;101635.56;5089800;28;20025;-83
2023/06/14 02:59:25;;;;;;;0.05;0.05;;;;;;;18.63;51.15;101631.25;5091434;28;20035;-82
2023/06/14 03:01:51;;;;;;;0.00;0.00;;;;;;;18.59;51.24;101635.88;5084681;28;20076;-81
2023/06/14 03:04:17;;;;;;;0.20;0.20;;;;;;;18.57;51.10;101629.69;5085430;28;20080;-82
2023/06/14 03:06:44;;;;;;;0.10;0.10;;;;;;;18.55;51.05;101639.59;5087328;28;20020;-82
2023/06/14 03:09:10;;;;;;;0.10;0.10;;;;;;;18.53;51.43;101637.91;5084854;28;20020;-82
2023/06/14 03:11:36;;;;;;;0.10;0.10;;;;;;;18.52;51.16;101636.19;5088152;28;20039;-81
2023/06/14 03:14:04;;;;;;;0.00;0.00;;;;;;;18.51;51.56;101639.81;5086206;28;20464;-80
2023/06/14 03:16:31;;;;;;;0.00;0.00;;;;;;;18.50;51.15;101646.97;5085398;28;20470;-81
2023/06/14 03:18:57;;;;;;;0.00;0.00;;;;;;;18.51;51.85;101653.22;5086422;28;20020;-81
2023/06/14 03:21:24;;;;;;;0.10;0.10;;;;;;;18.49;51.32;101655.09;5083655;28;20021;-80
2023/06/14 03:23:51;;;;;;;0.10;0.10;;;;;;;18.48;51.42;101656.00;5085380;28;20025;-80
2023/06/14 03:26:19;;;;;;;0.10;0.10;;;;;;;18.49;51.74;101660.44;5084782;28;20037;-80
2023/06/14 03:28:46;;;;;;;0.00;0.00;;;;;;;18.49;51.61;101655.97;5082924;28;20020;-80
2023/06/14 03:31:13;;;;;;;0.10;0.10;;;;;;;18.49;52.15;101660.44;5086385;28;20036;-80
2023/06/14 03:33:40;;;;;;;0.65;0.65;;;;;;;18.49;51.65;101663.13;5085666;28;20072;-81
2023/06/14 03:36:06;;;;;;;0.00;0.00;;;;;;;18.48;52.63;101664.97;5087911;28;20485;-82
2023/06/14 03:38:33;;;;;;;0.20;0.20;;;;;;;18.48;52.00;101664.97;5084463;28;20043;-80
2023/06/14 03:40:59;;;;;;;0.40;0.40;;;;;;;18.51;52.51;101674.69;5083844;28;20098;-80
2023/06/14 03:43:25;;;;;;;0.10;0.10;;;;;;;18.51;52.84;101674.69;5083520;28;20032;-80
2023/06/14 03:45:51;;;;;;;0.00;0.00;;;;;;;18.49;52.57;101672.06;5085271;28;20386;-79
2023/06/14 03:48:17;;;;;;;0.00;0.00;;;;;;;18.49;52.33;101677.44;5086412;28;20511;-80
2023/06/14 03:50:44;;;;;;;0.00;0.00;;;;;;;18.48;52.76;101675.69;5085143;28;20024;-80
2023/06/14 03:53:11;;;;;;;0.00;0.00;;;;;;;18.50;51.54;101681.00;5084985;28;20058;-80
2023/06/14 03:55:37;;;;;;;0.10;0.10;;;;;;;18.50;52.70;101681.00;5083006;28;20177;-79
2023/06/14 03:58:04;;;;;;;0.10;0.10;;;;;;;18.51;51.84;101685.44;5085415;28;20477;-80
2023/06/14 04:00:31;;;;;;;1.13;0.45;;;;;;;18.51;52.48;101688.09;5086605;28;20043;-80
2023/06/14 04:02:58;;;;;;;0.00;0.00;;;;;;;18.50;52.97;101689.03;5084759;28;20028;-80
2023/06/14 04:05:26;;;;;;;0.10;0.10;;;;;;;18.51;52.01;101686.28;5085368;28;20055;-80
2023/06/14 04:07:55;;;;;;;0.10;0.10;;;;;;;18.51;52.29;101690.78;5090586;28;20032;-80
2023/06/14 04:10:21;;;;;;;0.00;0.00;;;;;;;18.51;52.68;101697.03;5087451;28;20028;-79
2023/06/14 04:12:48;;;;;;;0.10;0.10;;;;;;;18.51;52.41;101696.16;5083976;28;20036;-81
2023/06/14 04:15:14;;;;;;;0.10;0.10;;;;;;;18.51;52.47;101691.66;5082174;28;20390;-82
2023/06/14 04:17:40;;;;;;;0.10;0.10;;;;;;;18.51;52.39;101690.78;5087966;28;20404;-80
2023/06/14 04:20:09;;;;;;;0.10;0.10;;;;;;;18.51;52.32;101701.53;5084897;28;20032;-80
2023/06/14 04:22:36;;;;;;;0.00;0.00;;;;;;;18.50;52.74;101699.78;5085162;28;20063;-80
2023/06/14 04:25:03;;;;;;;0.00;0.00;;;;;;;18.49;52.17;101698.03;5088234;28;20047;-80
2023/06/14 04:27:34;;;;;;;0.05;0.05;;;;;;;18.53;52.22;101705.00;5087911;28;20738;-81
2023/06/14 04:30:03;;;;;;;0.10;0.10;;;;;;;18.51;52.38;101709.56;5094573;28;20031;-80
2023/06/14 04:32:33;;;;;;;2.90;0.85;;;;;;;18.53;52.22;101713.06;5088362;28;20053;-80
2023/06/14 04:35:03;;;;;;;0.00;0.00;;;;;;;18.54;51.83;101710.34;5092611;28;20055;-80
2023/06/14 04:37:30;;;;;;;0.15;0.15;;;;;;;18.53;52.31;101711.25;5099466;28;20027;-79
2023/06/14 04:39:56;;;;;;;0.03;0.03;;;;;;;18.56;52.17;101704.91;5120811;28;20056;-81
2023/06/14 04:42:24;;;;;;;0.03;0.03;;;;;;;18.58;51.99;101697.66;5100898;28;20028;-81
2023/06/14 04:44:55;;;;;;;0.03;0.03;;;;;;;18.58;52.55;101701.22;5101278;28;20055;-81
2023/06/14 04:47:21;;;;;;;0.10;0.10;;;;;;;18.59;52.58;101710.13;5090407;28;20020;-80
2023/06/14 04:49:47;;;;;;;0.10;0.10;;;;;;;18.59;51.73;101710.13;5096572;28;20032;-78
2023/06/14 04:52:14;;;;;;;0.10;0.10;;;;;;;18.60;51.94;101701.16;5092741;28;20032;-80
2023/06/14 04:54:43;;;;;;;0.10;0.10;;;;;;;18.60;51.55;101701.16;5087188;28;20029;-80
2023/06/14 04:57:13;;;;;;;0.10;0.10;;;;;;;18.60;52.10;101703.84;5090318;28;20020;-80
2023/06/14 04:59:40;;;;;;;0.00;0.00;;;;;;;18.62;51.82;101706.44;5087390;28;20040;-79
2023/06/14 05:02:08;;;;;;;0.00;0.00;;;;;;;18.62;52.33;101714.50;5082516;28;20546;-81
2023/06/14 05:04:39;;;;;;;0.30;0.30;;;;;;;18.63;52.10;101706.41;5090001;28;20028;-80
2023/06/14 05:07:08;;;;;;;0.00;0.00;;;;;;;18.63;51.60;101706.41;5088143;28;20157;-80
2023/06/14 05:09:35;;;;;;;0.30;0.30;;;;;;;18.63;51.73;101706.41;5080421;28;20047;-80
2023/06/14 05:12:01;;;;;;;0.13;0.13;;;;;;;18.64;51.84;101713.53;5098529;28;20080;-80
2023/06/14 05:14:27;;;;;;;0.10;0.10;;;;;;;18.65;51.65;101719.75;5099638;28;20028;-80
2023/06/14 05:16:53;;;;;;;0.00;0.00;;;;;;;18.65;51.71;101707.19;5085883;28;20436;-80
2023/06/14 05:19:20;;;;;;;0.17;0.17;;;;;;;18.65;51.92;101715.25;5077034;28;20505;-80
2023/06/14 05:21:47;;;;;;;0.10;0.10;;;;;;;18.68;51.49;101715.16;5081116;28;20553;-80
2023/06/14 05:24:14;;;;;;;0.05;0.05;;;;;;;18.69;51.77;101724.94;5081825;28;20068;-80
2023/06/14 05:26:41;;;;;;;0.10;0.10;;;;;;;18.67;51.79;101718.75;5089739;28;20027;-81
2023/06/14 05:29:07;;;;;;;0.65;0.65;;;;;;;18.71;51.56;101715.00;5083181;28;20035;-81
2023/06/14 05:31:33;;;;;;;0.20;0.20;;;;;;;18.72;53.32;101719.44;5076015;28;20063;-82
2023/06/14 05:33:59;;;;;;;0.55;0.30;;;;;;;18.81;52.39;101717.34;5093948;28;20028;-80
2023/06/14 05:36:27;;;;;;;0.00;0.00;;;;;;;18.86;51.82;101718.00;5083097;28;20028;-79
2023/06/14 05:39:02;;;;;;;0.05;0.05;;;;;;;18.90;52.17;101725.00;5075102;28;20553;-80
2023/06/14 05:41:29;;;;;;;0.00;0.00;;;;;;;18.92;52.61;101723.16;5081155;28;20545;-80
2023/06/14 05:43:56;;;;;;;0.80;0.80;;;;;;;18.99;51.94;101730.03;5078196;28;20523;-81
2023/06/14 05:46:25;;;;;;;0.10;0.10;;;;;;;19.03;51.66;101723.59;5078270;28;20028;-80
2023/06/14 05:48:52;;;;;;;0.08;0.08;;;;;;;19.08;52.31;101729.66;5086769;28;20047;-81
2023/06/14 05:51:19;;;;;;;0.50;0.50;;;;;;;19.09;53.12;101730.53;5082849;28;20052;-81
2023/06/14 05:53:46;;;;;;;0.10;0.10;;;;;;;19.16;52.25;101731.13;5088769;28;20521;-81
2023/06/14 05:56:13;;;;;;;0.40;0.40;;;;;;;19.20;51.92;101732.75;5079843;28;20041;-80
2023/06/14 05:58:40;;;;;;;0.10;0.10;;;;;;;19.26;51.97;101737.00;5087840;28;20039;-79
2023/06/14 06:01:06;;;;;;;0.00;0.00;;;;;;;19.31;51.87;101730.47;5090856;28;20127;-80
2023/06/14 06:03:32;;;;;;;0.20;0.20;;;;;;;19.38;51.27;101731.97;5082269;28;20037;-79
2023/06/14 06:05:58;;;;;;;0.00;0.00;;;;;;;19.44;51.89;101740.69;5087549;28;20493;-79
2023/06/14 06:08:25;;;;;;;0.00;0.00;;;;;;;19.48;51.71;101731.59;5084950;28;20037;-79
2023/06/14 06:10:51;;;;;;;0.20;0.20;;;;;;;19.55;51.35;101738.41;5082948;28;20048;-79
2023/06/14 06:13:17;;;;;;;0.10;0.10;;;;;;;19.61;50.95;101735.47;5082845;28;20029;-80
2023/06/14 06:15:46;;;;;;;0.40;0.40;;;;;;;19.67;50.59;101732.50;5087016;28;20025;-80
2023/06/14 06:18:12;;;;;;;0.08;0.08;;;;;;;19.70;49.75;101735.06;5083984;28;20088;-80
2023/06/14 06:20:38;;;;;;;0.10;0.10;;;;;;;19.80;50.12;101726.59;5085526;28;20062;-80
2023/06/14 06:23:04;;;;;;;0.10;0.10;;;;;;;19.87;50.06;101736.16;5083493;28;20130;-81
2023/06/14 06:25:31;;;;;;;0.10;0.10;;;;;;;19.95;50.19;101739.41;5079723;28;20039;-80
2023/06/14 06:27:58;;;;;;;0.10;0.10;;;;;;;20.04;49.72;101743.47;5089395;28;20032;-79
2023/06/14 06:30:24;;;;;;;9.90;1.38;;;;;;;20.12;49.02;101746.69;5088559;28;20029;-81
2023/06/14 06:32:51;;;;;;;0.10;0.10;;;;;;;20.17;48.86;101746.47;5084595;28;20028;-81
2023/06/14 06:35:17;;;;;;;0.10;0.10;;;;;;;20.25;48.88;101744.31;5083511;28;20394;-81
2023/06/14 06:37:43;;;;;;;0.00;0.00;;;;;;;20.33;48.65;101749.31;5081118;28;20024;-82
2023/06/14 06:40:12;;;;;;;0.35;0.35;;;;;;;20.40;47.71;101755.28;5087791;28;20050;-80
2023/06/14 06:42:38;;;;;;;0.10;0.10;;;;;;;20.53;48.14;101753.75;5076655;28;20025;-80
2023/06/14 06:45:05;;;;;;;0.32;0.32;;;;;;;20.61;47.91;101753.41;5102217;28;20035;-80
2023/06/14 06:47:31;;;;;;;0.00;0.00;;;;;;;20.73;47.66;101760.06;5080601;28;20037;-80
2023/06/14 06:49:58;;;;;;;0.10;0.10;;;;;;;20.80;46.98;101766.91;5079557;28;20036;-78
2023/06/14 06:52:24;;;;;;;0.10;0.10;;;;;;;20.89;47.23;101771.81;5083469;28;20036;-77
2023/06/14 06:54:54;;;;;;;0.10;0.10;;;;;;;20.94;45.97;101768.91;5081762;28;20029;-77
2023/06/14 06:57:22;;;;;;;0.03;0.03;;;;;;;21.03;45.61;101773.84;5088878;28;20481;-77
2023/06/14 06:59:49;;;;;;;0.20;0.20;;;;;;;21.13;46.51;101771.56;5090389;28;20075;-76
2023/06/14 07:02:15;;;;;;;0.10;0.10;;;;;;;21.20;45.35;101775.69;5087402;28;20032;-77
2023/06/14 07:04:41;;;;;;;0.10;0.10;;;;;;;21.23;45.55;101780.06;5079193;28;20110;-77
2023/06/14 07:07:09;;;;;;;0.55;0.52;;;;;;;21.36;45.55;101785.69;5073788;28;20024;-79
2023/06/14 07:09:36;;;;;;;0.10;0.10;;;;;;;21.41;45.41;101783.63;5072487;28;20389;-77
2023/06/14 07:12:02;;;;;;;0.10;0.10;;;;;;;21.47;44.93;101781.53;5078681;28;20089;-77
2023/06/14 07:14:30;;;;;;;0.10;0.10;;;;;;;21.56;44.52;101779.31;5080555;28;20028;-77
2023/06/14 07:16:56;;;;;;;0.08;0.08;;;;;;;21.69;45.01;101787.66;5084251;28;20088;-77
2023/06/14 07:19:22;;;;;;;0.10;0.10;;;;;;;21.78;44.63;101776.38;5070669;28;20025;-77
2023/06/14 07:21:48;;;;;;;0.05;0.05;;;;;;;21.88;44.52;101783.06;5078869;28;20410;-77
2023/06/14 07:24:14;;;;;;;0.13;0.13;;;;;;;21.97;43.75;101785.25;5089812;28;20035;-75
2023/06/14 07:26:40;;;;;;;0.10;0.10;;;;;;;22.07;44.54;101792.84;5094906;28;20035;-77
2023/06/14 07:29:06;;;;;;;0.43;0.43;;;;;;;22.18;44.11;101785.06;5076551;28;20489;-77
2023/06/14 07:31:32;;;;;;;0.00;0.00;;;;;;;22.28;43.88;101793.50;5076599;28;20046;-77
2023/06/14 07:33:58;;;;;;;0.00;0.00;;;;;;;22.42;43.67;101798.22;5086188;28;20031;-77
2023/06/14 07:36:24;;;;;;;0.10;0.10;;;;;;;22.55;43.29;101798.41;5082498;28;20024;-77
2023/06/14 07:38:51;;;;;;;0.10;0.10;;;;;;;22.68;42.93;101795.88;5083855;28;20027;-78
2023/06/14 07:41:17;;;;;;;18.05;0.75;;;;;;;22.77;42.15;101789.97;5087253;28;20020;-77
2023/06/14 07:43:43;;;;;;;0.10;0.10;;;;;;;22.88;42.67;101794.75;5088418;28;20039;-79
2023/06/14 07:46:09;;;;;;;0.10;0.10;;;;;;;22.97;42.46;101796.94;5090065;28;20039;-80
2023/06/14 07:48:35;;;;;;;0.17;0.17;;;;;;;23.06;42.20;101790.13;5063567;22;20041;-80
2023/06/14 07:51:02;;;;;;;0.10;0.10;;;;;;;23.15;41.90;101796.81;5042546;28;20087;-80
2023/06/14 07:53:28;;;;;;;0.30;0.30;;;;;;;23.22;41.82;101799.09;5044434;28;20026;-79
2023/06/14 07:55:55;;;;;;;0.05;0.05;;;;;;;23.36;42.05;101806.41;5049039;28;20033;-76
2023/06/14 07:58:21;;;;;;;0.22;0.22;;;;;;;23.40;41.48;101809.81;5054906;28;20447;-75
2023/06/14 08:00:47;;;;;;;0.28;0.28;;;;;;;23.51;40.57;101799.22;5052245;28;20091;-78
2023/06/14 08:03:14;;;;;;;0.10;0.10;;;;;;;23.55;41.09;101806.19;5045885;28;20032;-78
2023/06/14 08:05:40;;;;;;;0.10;0.10;;;;;;;23.66;40.79;101813.66;5041968;28;20053;-78
2023/06/14 08:08:06;;;;;;;0.73;0.73;;;;;;;23.74;40.96;101811.38;5043693;28;20042;-79
2023/06/14 08:10:32;;;;;;;0.10;0.10;;;;;;;23.82;40.65;101808.19;5043077;28;20030;-78
2023/06/14 08:12:58;;;;;;;0.52;0.38;;;;;;;23.94;40.78;101806.63;5034440;28;20033;-79
2023/06/14 08:15:25;;;;;;;0.25;0.25;;;;;;;24.04;39.45;101807.78;5029755;28;20046;-79
2023/06/14 08:17:53;;;;;;;0.38;0.38;;;;;;;24.16;39.51;101810.69;5023847;28;20563;-78
2023/06/14 08:20:19;;;;;;;0.00;0.00;;;;;;;24.23;40.45;101802.06;5022095;28;20041;-77
2023/06/14 08:22:47;;;;;;;0.22;0.22;;;;;;;24.36;40.81;101812.13;5016937;28;20452;-77
2023/06/14 08:25:13;;;;;;;0.10;0.10;;;;;;;24.40;39.73;101794.75;5019904;28;20014;-78
2023/06/14 08:27:40;;;;;;;0.15;0.15;;;;;;;24.43;38.73;101799.94;5020017;28;20034;-78
2023/06/14 08:30:08;;;;;;;0.10;0.10;;;;;;;24.57;37.83;101798.22;5019712;28;20117;-77
2023/06/14 08:32:34;;;;;;;0.10;0.10;;;;;;;24.65;39.29;101801.31;5021256;28;20029;-77
2023/06/14 08:35:00;;;;;;;0.20;0.20;;;;;;;24.81;39.31;101807.50;5018529;28;20485;-77
2023/06/14 08:37:26;;;;;;;0.00;0.00;;;;;;;24.85;38.61;101803.59;5000544;28;20034;-78
2023/06/14 08:39:52;;;;;;;0.50;0.50;;;;;;;24.93;38.74;101800.38;5019074;28;20036;-77
2023/06/14 08:42:21;;;;;;;0.30;0.30;;;;;;;24.98;39.36;101806.38;5026170;28;20029;-78
2023/06/14 08:44:49;;;;;;;0.10;0.10;;;;;;;25.11;39.02;101802.84;5020780;28;20069;-77
2023/06/14 08:47:18;;;;;;;0.13;0.13;;;;;;;25.15;38.57;101805.25;5018867;28;20445;-77
2023/06/14 08:49:47;;;;;;;5.18;0.63;;;;;;;25.28;38.17;101799.00;5020505;28;20033;-77
2023/06/14 08:52:18;;;;;;;0.20;0.20;;;;;;;25.34;37.25;101804.03;5019128;28;20037;-77
2023/06/14 08:54:45;;;;;;;0.20;0.20;;;;;;;25.49;37.44;101808.44;5020507;28;20022;-77
2023/06/14 08:57:15;;;;;;;0.13;0.13;;;;;;;25.55;36.26;101800.88;5022605;28;20481;-77
2023/06/14 08:59:48;;;;;;;0.03;0.03;;;;;;;25.67;36.76;101805.44;5018356;28;20021;-77
2023/06/14 09:02:17;;;;;;;0.15;0.15;;;;;;;25.72;35.10;101797.88;5024336;28;20057;-78
2023/06/14 09:04:44;;;;;;;0.13;0.13;;;;;;;25.77;35.45;101800.22;5023696;28;20062;-77
2023/06/14 09:07:12;;;;;;;0.00;0.00;;;;;;;25.88;35.53;101803.06;5024999;28;20033;-77
2023/06/14 09:09:41;;;;;;;0.10;0.10;;;;;;;25.96;35.64;101806.13;5025265;28;20044;-78
2023/06/14 09:12:10;;;;;;;0.00;0.00;;;;;;;26.06;35.90;101800.94;5023087;28;20052;-77
2023/06/14 09:14:39;;;;;;;0.00;0.00;;;;;;;26.15;36.41;101800.28;5030196;28;20503;-78
2023/06/14 09:17:05;;;;;;;0.30;0.30;;;;;;;26.28;35.93;101804.84;5031486;28;20022;-78
2023/06/14 09:19:31;;;;;;;0.00;0.00;;;;;;;26.32;34.64;101812.66;5026187;28;20073;-78
2023/06/14 09:21:57;;;;;;;0.20;0.20;;;;;;;26.42;35.63;101814.75;5038858;28;20033;-78
2023/06/14 09:24:26;;;;;;;0.75;0.32;;;;;;;26.40;34.27;101809.38;5035531;28;20056;-78
2023/06/14 09:26:52;;;;;;;2.90;0.30;;;;;;;26.44;34.40;101810.94;5041322;28;20029;-76
2023/06/14 09:29:19;;;;;;;0.47;0.47;;;;;;;26.50;35.22;101797.88;5040818;28;20021;-78
2023/06/14 09:31:47;;;;;;;0.30;0.30;;;;;;;26.54;33.84;101810.25;5041551;28;20060;-78
2023/06/14 09:34:13;;;;;;;0.28;0.28;;;;;;;26.57;34.53;101799.16;5036155;28;20025;-78
2023/06/14 09:36:42;;;;;;;0.10;0.10;;;;;;;26.70;34.87;101797.25;5033305;28;20057;-78
2023/06/14 09:39:09;;;;;;;0.00;0.00;;;;;;;26.84;35.14;101806.28;5036453;28;20167;-77
2023/06/14 09:41:37;;;;;;;0.10;0.10;;;;;;;26.94;33.48;101812.78;5033216;28;20037;-78
2023/06/14 09:44:06;;;;;;;0.10;0.10;;;;;;;27.06;33.80;101811.84;5039762;28;20112;-78
2023/06/14 09:46:33;;;;;;;0.08;0.08;;;;;;;27.16;32.78;101812.03;5029676;28;20428;-76
2023/06/14 09:49:00;;;;;;;0.08;0.08;;;;;;;27.30;35.02;101811.00;5037621;28;20029;-77
2023/06/14 09:51:27;;;;;;;0.40;0.40;;;;;;;27.43;33.07;101809.09;5032336;28;20053;-78
2023/06/14 09:54:01;;;;;;;0.10;0.10;;;;;;;27.48;31.80;101800.59;5036714;28;20029;-79
2023/06/14 09:56:30;;;;;;;0.10;0.10;;;;;;;27.56;30.38;101805.44;5030962;28;20140;-78
2023/06/14 09:58:57;;;;;;;0.10;0.10;;;;;;;27.69;31.75;101806.22;5039270;28;20034;-78
2023/06/14 10:01:27;;;;;;;0.10;0.10;;;;;;;27.74;31.31;101801.28;5028627;28;20033;-79
2023/06/14 10:04:00;;;;;;;0.00;0.00;;;;;;;27.69;29.34;101803.50;5035932;28;20033;-78
2023/06/14 10:06:28;;;;;;;0.30;0.30;;;;;;;27.82;28.94;101810.72;5024392;28;20041;-77
2023/06/14 10:08:59;;;;;;;0.20;0.20;;;;;;;27.87;29.40;101806.63;5030162;28;20030;-78
2023/06/14 10:11:27;;;;;;;0.10;0.10;;;;;;;27.89;29.68;101803.81;5022165;28;20056;-77
2023/06/14 10:13:55;;;;;;;0.30;0.30;;;;;;;28.01;30.46;101802.81;5033549;28;20057;-77
2023/06/14 10:16:31;;;;;;;0.10;0.10;;;;;;;28.15;30.73;101804.50;5018142;28;20488;-77
2023/06/14 10:24:40;;;;;;;0.47;0.47;;;;;;;28.36;29.64;101796.44;5103281;27;20511;-77
2023/06/14 10:27:11;;;;;;;0.10;0.10;;;;;;;28.45;30.57;101802.13;5098038;28;20032;-79
2023/06/14 10:32:34;;;;;;;0.30;0.30;;;;;;;28.59;28.54;101801.88;5109971;27;20095;-77
2023/06/14 10:35:04;;;;;;;0.10;0.10;;;;;;;28.66;29.59;101805.84;5110354;28;20039;-77
2023/06/14 10:37:30;;;;;;;0.00;0.00;;;;;;;28.69;28.89;101791.97;5090894;28;20544;-77
2023/06/14 10:39:57;;;;;;;0.00;0.00;;;;;;;28.79;28.45;101799.41;5092120;28;20028;-78
2023/06/14 10:42:31;;;;;;;0.10;0.10;;;;;;;28.87;29.43;101796.91;5092432;28;20042;-78
2023/06/14 10:44:59;;;;;;;0.10;0.10;;;;;;;28.85;26.78;101798.91;5097193;28;20028;-78
2023/06/14 10:47:28;;;;;;;0.10;0.10;;;;;;;28.91;27.71;101802.97;5096570;28;20091;-78
2023/06/14 10:50:14;;;;;;;0.45;0.45;;;;;;;28.95;27.95;101798.97;5097828;28;20036;-78
2023/06/14 10:52:43;;;;;;;0.10;0.10;;;;;;;28.92;28.11;101805.56;5100085;28;20031;-78
2023/06/14 10:55:16;;;;;;;0.10;0.10;;;;;;;28.93;27.62;101806.44;5100697;28;20036;-78
2023/06/14 11:00:23;;;;;;;0.65;0.55;;;;;;;29.02;28.31;101809.28;5112774;27;20404;-76
2023/06/14 11:11:14;;;;;;;0.20;0.20;;;;;;;29.42;27.35;101799.59;5123958;27;20174;-76
2023/06/14 11:13:44;;;;;;;0.10;0.10;;;;;;;29.53;27.65;101787.75;5095691;28;20043;-77
2023/06/14 11:16:19;;;;;;;0.10;0.10;;;;;;;29.52;27.39;101797.81;5090155;28;20380;-77
2023/06/14 11:18:45;;;;;;;0.00;0.00;;;;;;;29.54;27.21;101789.50;5090601;28;20020;-77
2023/06/14 11:21:15;;;;;;;0.10;0.10;;;;;;;29.66;26.53;101791.16;5090092;28;20024;-76
2023/06/14 11:23:41;;;;;;;0.00;0.00;;;;;;;29.72;26.12;101778.84;5088951;28;20059;-77
2023/06/14 11:26:07;;;;;;;0.10;0.10;;;;;;;29.79;28.26;101790.09;5088924;28;20028;-77
2023/06/14 11:28:38;;;;;;;0.00;0.00;;;;;;;29.83;27.84;101791.53;5090030;28;20073;-77
2023/06/14 11:31:05;;;;;;;0.13;0.13;;;;;;;29.93;25.71;101792.50;5090935;28;20024;-77
2023/06/14 11:33:31;;;;;;;0.10;0.10;;;;;;;29.94;26.36;101788.75;5091700;28;20024;-77
2023/06/14 11:35:57;;;;;;;0.10;0.10;;;;;;;29.91;26.65;101772.66;5089169;28;20103;-77
2023/06/14 11:38:24;;;;;;;0.10;0.10;;;;;;;30.00;25.22;101774.56;5089941;28;20024;-78
2023/06/14 11:40:50;;;;;;;0.10;0.10;;;;;;;30.09;27.26;101766.56;5090197;28;20020;-77
2023/06/14 11:43:17;;;;;;;0.10;0.10;;;;;;;30.20;28.37;101757.41;5095858;28;20020;-79
2023/06/14 11:45:43;;;;;;;0.10;0.10;;;;;;;30.29;25.54;101772.97;5096036;28;20518;-78